Avon, Iowa
Current Conditions -  °F | °C
As of 7:54 PM on Saturday 25 Oct 2014 (Local Time) from KDSM Reporting Station
Clear Clear  
Wind Chill: 16°   Ceiling: Unl
Heat Index: 16°   Visibility: 10mi
Dew Point:   Wind: 6mph
Humidity: 44%   Direction: 60°ENE
Pressure: 30.06"   Gusts: NA
Location:  41.4707°N, 93.4797°W
Report Text: KDSM 260054Z 06005KT 10SM CLR 16/03 A3006 RMK AO2 SLP177 T01560033
Loading
Personal Weather Stations






























Interactive Weather Map
Tropical Storm Tracking
New forecast layout! Learn more

10-Day Weather Forecast

Advertisements
Track Severe Weather on mobile